createdAt,value
2022-11-10T00:00:18.701Z,21.66
2022-11-10T00:01:08.098Z,21.73
2022-11-10T00:01:57.703Z,21.77
2022-11-10T00:02:50.968Z,21.77
2022-11-10T00:03:45.225Z,21.78
2022-11-10T00:05:02.841Z,21.80
2022-11-10T00:05:49.334Z,21.78
2022-11-10T00:06:39.808Z,21.82
2022-11-10T00:07:49.493Z,21.79
2022-11-10T00:08:38.583Z,21.82
2022-11-10T00:09:37.847Z,21.78
2022-11-10T00:10:33.038Z,21.76
2022-11-10T00:11:21.440Z,21.75
2022-11-10T00:13:20.907Z,21.81
2022-11-10T00:14:07.355Z,21.85
2022-11-10T00:14:54.408Z,21.82
2022-11-10T00:15:40.834Z,21.80
2022-11-10T00:16:27.413Z,21.80
2022-11-10T00:17:17.792Z,21.80
2022-11-10T00:18:04.785Z,21.81
2022-11-10T00:18:54.535Z,21.82
2022-11-10T00:19:41.528Z,21.78
2022-11-10T00:20:29.108Z,21.79
2022-11-10T00:21:16.218Z,21.73
2022-11-10T00:22:04.495Z,21.77
2022-11-10T00:23:27.363Z,21.83
2022-11-10T00:24:38.035Z,21.87
2022-11-10T00:25:33.284Z,21.89
2022-11-10T00:26:23.391Z,21.85
2022-11-10T00:27:20.838Z,21.86
2022-11-10T00:31:52.961Z,21.82
2022-11-10T00:32:45.539Z,21.72
2022-11-10T00:37:18.709Z,21.80
2022-11-10T00:38:06.157Z,21.76
2022-11-10T00:43:02.352Z,21.79
2022-11-10T00:43:52.244Z,21.80
2022-11-10T00:44:42.730Z,21.81
2022-11-10T00:45:36.561Z,21.76
2022-11-10T00:46:25.977Z,21.75
2022-11-10T00:47:21.259Z,21.72
2022-11-10T00:48:10.848Z,21.76
2022-11-10T00:48:59.144Z,21.82
2022-11-10T00:49:49.183Z,21.75
2022-11-10T00:50:39.929Z,21.75
2022-11-10T00:51:41.262Z,21.80
2022-11-10T00:52:34.642Z,21.81
2022-11-10T00:53:24.541Z,21.83
2022-11-10T00:54:12.075Z,21.82
2022-11-10T00:55:01.359Z,21.85
2022-11-10T00:55:49.574Z,21.81
2022-11-10T00:56:37.613Z,21.82
2022-11-10T00:57:32.018Z,21.81
2022-11-10T00:58:20.814Z,21.81
2022-11-10T00:59:11.605Z,21.84
2022-11-10T01:00:01.135Z,21.73
2022-11-10T01:00:50.702Z,21.78
2022-11-10T01:01:40.265Z,21.80
2022-11-10T01:02:34.545Z,21.81
2022-11-10T01:03:24.939Z,21.84
2022-11-10T01:04:12.163Z,21.80
2022-11-10T01:05:03.041Z,21.76
2022-11-10T01:05:51.090Z,21.78
2022-11-10T01:06:38.467Z,21.83
2022-11-10T01:07:31.648Z,21.83
2022-11-10T01:08:21.153Z,21.82
2022-11-10T01:09:10.342Z,21.75
2022-11-10T01:09:58.025Z,21.73
2022-11-10T01:10:46.194Z,21.79
2022-11-10T01:11:32.302Z,21.80
2022-11-10T01:12:20.335Z,21.82
2022-11-10T01:13:11.465Z,21.83
2022-11-10T01:13:58.145Z,21.81
2022-11-10T01:14:46.455Z,21.81
2022-11-10T01:15:34.867Z,21.82
2022-11-10T01:16:16.835Z,21.80
2022-11-10T01:17:07.363Z,21.80
2022-11-10T01:18:03.907Z,21.80
2022-11-10T01:18:53.807Z,21.80
2022-11-10T01:19:45.812Z,21.82
2022-11-10T01:20:36.650Z,21.84
2022-11-10T01:21:26.667Z,21.82
2022-11-10T01:22:18.980Z,21.83
2022-11-10T01:23:15.008Z,21.85
2022-11-10T01:24:04.771Z,21.79
2022-11-10T01:24:54.739Z,21.83
2022-11-10T01:25:46.957Z,21.83
2022-11-10T01:26:36.842Z,21.85
2022-11-10T01:27:30.778Z,21.81
2022-11-10T01:28:21.220Z,21.82
2022-11-10T01:29:11.631Z,21.83
2022-11-10T01:30:01.506Z,21.81
2022-11-10T01:30:52.546Z,21.81
2022-11-10T01:31:42.579Z,21.83
2022-11-10T01:32:37.560Z,21.82
2022-11-10T01:33:29.114Z,21.81
2022-11-10T01:34:19.223Z,21.83
2022-11-10T01:35:08.688Z,21.80
2022-11-10T01:35:56.813Z,21.81
2022-11-10T01:36:45.911Z,21.81
2022-11-10T01:37:39.464Z,21.84
2022-11-10T01:38:28.808Z,21.83
2022-11-10T01:39:18.377Z,21.83
2022-11-10T01:40:10.915Z,21.82
2022-11-10T01:41:01.083Z,21.83
2022-11-10T01:41:51.177Z,21.82
2022-11-10T01:42:50.397Z,21.78
2022-11-10T01:43:43.793Z,21.82
2022-11-10T01:44:37.571Z,21.82
2022-11-10T01:45:39.976Z,21.81
2022-11-10T01:46:30.753Z,21.78
2022-11-10T01:47:20.582Z,21.80
2022-11-10T01:48:17.596Z,21.81
2022-11-10T01:49:04.514Z,21.82
2022-11-10T01:49:52.450Z,21.82
2022-11-10T01:50:41.013Z,21.82
2022-11-10T01:51:29.199Z,21.83
2022-11-10T01:52:17.398Z,21.83
2022-11-10T01:53:13.252Z,21.84
2022-11-10T01:54:10.262Z,21.75
2022-11-10T01:54:57.591Z,21.79
2022-11-10T01:55:44.930Z,21.82
2022-11-10T01:56:31.642Z,21.82
2022-11-10T01:57:18.898Z,21.79
2022-11-10T01:58:06.309Z,21.80
2022-11-10T01:58:54.640Z,21.81
2022-11-10T01:59:48.848Z,21.83
2022-11-10T02:00:35.524Z,21.82
2022-11-10T02:01:24.781Z,21.81
2022-11-10T02:02:24.278Z,21.80
2022-11-10T02:03:13.741Z,21.79
2022-11-10T02:04:01.773Z,21.78
2022-11-10T02:04:56.263Z,21.79
2022-11-10T02:05:45.574Z,21.80
2022-11-10T02:06:34.635Z,21.82
2022-11-10T02:07:24.511Z,21.82
2022-11-10T02:08:18.550Z,21.82
2022-11-10T02:09:08.844Z,21.83
2022-11-10T02:09:59.119Z,21.76
2022-11-10T02:10:49.283Z,21.78
2022-11-10T02:11:40.064Z,21.74
2022-11-10T02:12:30.925Z,21.79
2022-11-10T02:13:26.990Z,21.79
2022-11-10T02:14:15.903Z,21.79
2022-11-10T02:15:04.464Z,21.67
2022-11-10T02:15:51.803Z,21.70
2022-11-10T02:16:40.980Z,21.76
2022-11-10T02:17:28.810Z,21.78
2022-11-10T02:18:17.572Z,21.81
2022-11-10T02:20:11.836Z,21.84
2022-11-10T02:21:02.313Z,21.79
2022-11-10T02:21:52.356Z,21.80
2022-11-10T02:22:40.927Z,21.75
2022-11-10T02:23:38.203Z,21.80
2022-11-10T02:24:36.884Z,21.80
2022-11-10T02:25:24.828Z,21.81
2022-11-10T02:26:13.120Z,21.76
2022-11-10T02:27:05.456Z,21.78
2022-11-10T02:27:57.936Z,21.80
2022-11-10T02:28:47.812Z,21.78
2022-11-10T02:29:43.149Z,21.76
2022-11-10T02:30:34.373Z,21.78
2022-11-10T02:31:27.793Z,21.79
2022-11-10T02:32:20.939Z,21.82
2022-11-10T02:33:13.614Z,21.84
2022-11-10T02:34:05.189Z,21.85
2022-11-10T02:35:02.251Z,21.83
2022-11-10T02:35:52.420Z,21.82
2022-11-10T02:36:43.117Z,21.82
2022-11-10T02:37:32.635Z,21.78
2022-11-10T02:38:30.323Z,21.82
2022-11-10T02:39:20.275Z,21.74
2022-11-10T02:40:19.144Z,21.80
2022-11-10T02:41:06.705Z,21.79
2022-11-10T02:41:54.975Z,21.80
2022-11-10T02:42:42.557Z,21.82
2022-11-10T02:43:32.813Z,21.80
2022-11-10T02:44:21.881Z,21.82
2022-11-10T02:45:10.244Z,21.82
2022-11-10T02:46:04.838Z,21.85
2022-11-10T02:46:55.693Z,21.85
2022-11-10T02:47:45.584Z,21.82
2022-11-10T02:48:38.640Z,21.81
2022-11-10T02:49:25.476Z,21.81
2022-11-10T02:50:15.692Z,21.76
2022-11-10T02:51:05.751Z,21.80
2022-11-10T02:51:57.445Z,21.78
2022-11-10T02:52:47.447Z,21.78
2022-11-10T02:53:41.026Z,21.80
2022-11-10T02:54:31.173Z,21.82
2022-11-10T02:55:21.398Z,21.82
2022-11-10T02:56:10.751Z,21.83
2022-11-10T02:56:59.587Z,21.81
2022-11-10T02:57:49.516Z,21.80
2022-11-10T02:58:38.174Z,21.83
2022-11-10T02:59:31.578Z,21.85
2022-11-10T03:00:20.868Z,21.84
2022-11-10T03:01:10.585Z,21.82
2022-11-10T03:01:59.999Z,21.81
2022-11-10T03:02:48.880Z,21.82
2022-11-10T03:03:37.874Z,21.83
2022-11-10T03:04:24.244Z,21.83
2022-11-10T03:05:09.984Z,21.83
2022-11-10T03:05:55.691Z,21.82
2022-11-10T03:06:42.602Z,21.82
2022-11-10T03:07:27.767Z,21.79
2022-11-10T03:08:14.342Z,21.81
2022-11-10T03:09:05.890Z,21.80
2022-11-10T03:09:51.783Z,21.81
2022-11-10T03:10:39.766Z,21.80
2022-11-10T03:11:30.989Z,21.83
2022-11-10T03:12:18.427Z,21.79
2022-11-10T03:13:05.214Z,21.81
2022-11-10T03:14:02.091Z,21.82
2022-11-10T03:14:53.542Z,21.82
2022-11-10T03:15:42.489Z,21.81
2022-11-10T03:16:31.035Z,21.79
2022-11-10T03:17:19.489Z,21.77
2022-11-10T03:18:07.284Z,21.79
2022-11-10T03:18:56.176Z,21.79
2022-11-10T03:19:44.944Z,21.75
2022-11-10T03:20:37.978Z,21.67
2022-11-10T03:21:27.259Z,21.74
2022-11-10T03:22:15.626Z,21.75
2022-11-10T03:23:05.729Z,21.77
2022-11-10T03:23:59.884Z,21.82
2022-11-10T03:24:47.862Z,21.81
2022-11-10T03:25:42.538Z,21.79
2022-11-10T03:26:30.389Z,21.73
2022-11-10T03:27:17.854Z,21.76
2022-11-10T03:28:07.244Z,21.79
2022-11-10T03:28:56.626Z,21.79
2022-11-10T03:29:45.940Z,21.78
2022-11-10T03:30:34.663Z,21.74
2022-11-10T03:31:28.206Z,21.75
2022-11-10T03:32:17.661Z,21.75
2022-11-10T03:33:06.948Z,21.78
2022-11-10T03:34:00.323Z,21.80
2022-11-10T03:34:47.133Z,21.79
2022-11-10T03:35:35.368Z,21.79
2022-11-10T03:36:27.153Z,21.78
2022-11-10T03:37:21.090Z,21.78
2022-11-10T03:38:07.113Z,21.78
2022-11-10T03:38:55.176Z,21.76
2022-11-10T03:39:44.706Z,21.78
2022-11-10T03:40:50.771Z,21.76
2022-11-10T03:41:40.150Z,21.79
2022-11-10T03:42:32.435Z,21.80
2022-11-10T03:43:20.539Z,21.76
2022-11-10T03:44:11.459Z,21.77
2022-11-10T03:44:59.122Z,21.77
2022-11-10T03:45:46.369Z,21.76
2022-11-10T03:46:34.310Z,21.76
2022-11-10T03:47:22.453Z,21.79
2022-11-10T03:48:11.106Z,21.77
2022-11-10T03:48:58.532Z,21.76
2022-11-10T03:49:52.007Z,21.79
2022-11-10T03:50:40.705Z,21.78
2022-11-10T03:51:28.926Z,21.77
2022-11-10T03:52:17.329Z,21.79
2022-11-10T03:53:06.788Z,21.81
2022-11-10T03:53:55.552Z,21.80
2022-11-10T03:54:44.502Z,21.81
2022-11-10T03:55:36.887Z,21.81
2022-11-10T03:56:26.483Z,21.81
2022-11-10T03:57:15.443Z,21.81
2022-11-10T03:58:04.811Z,21.80
2022-11-10T03:58:56.494Z,21.82
2022-11-10T03:59:46.674Z,21.80
2022-11-10T04:00:36.086Z,21.79
2022-11-10T04:01:25.031Z,21.83
2022-11-10T04:02:13.307Z,21.83
2022-11-10T04:03:01.312Z,21.82
2022-11-10T04:03:51.496Z,21.83
2022-11-10T04:04:42.589Z,21.83
2022-11-10T04:05:29.369Z,21.81
2022-11-10T04:06:15.450Z,21.82
2022-11-10T04:07:03.212Z,21.81
2022-11-10T04:07:48.693Z,21.81
2022-11-10T04:08:34.530Z,21.79
2022-11-10T04:09:26.269Z,21.81
2022-11-10T04:10:13.596Z,21.82
2022-11-10T04:10:59.508Z,21.80
2022-11-10T04:11:45.301Z,21.83
2022-11-10T04:12:32.429Z,21.85
2022-11-10T04:13:18.844Z,21.83
2022-11-10T04:14:12.154Z,21.83
2022-11-10T04:14:59.907Z,21.85
2022-11-10T04:15:46.881Z,21.85
2022-11-10T04:16:33.642Z,21.84
2022-11-10T04:17:20.069Z,21.84
2022-11-10T04:18:08.756Z,21.82
2022-11-10T04:18:57.217Z,21.82
2022-11-10T04:19:53.330Z,21.83
2022-11-10T04:20:42.158Z,21.84
2022-11-10T04:21:30.222Z,21.84
2022-11-10T04:22:18.627Z,21.83
2022-11-10T04:23:07.814Z,21.84
2022-11-10T04:23:58.956Z,21.82
2022-11-10T04:24:47.824Z,21.80
2022-11-10T04:25:41.723Z,21.84
2022-11-10T04:26:29.842Z,21.79
2022-11-10T04:27:18.099Z,21.82
2022-11-10T04:28:07.190Z,21.83
2022-11-10T04:28:56.447Z,21.82
2022-11-10T04:29:44.277Z,21.81
2022-11-10T04:30:32.433Z,21.82
2022-11-10T04:31:25.954Z,21.81
2022-11-10T04:32:15.481Z,21.81
2022-11-10T04:33:02.763Z,21.83
2022-11-10T04:33:55.122Z,21.83
2022-11-10T04:34:43.437Z,21.83
2022-11-10T04:35:31.877Z,21.83
2022-11-10T04:36:20.041Z,21.81
2022-11-10T04:37:11.404Z,21.82
2022-11-10T04:37:59.531Z,21.82
2022-11-10T04:38:47.736Z,21.83
2022-11-10T04:39:34.878Z,21.82
2022-11-10T04:40:21.383Z,21.83
2022-11-10T04:41:10.576Z,21.80
2022-11-10T04:42:02.549Z,21.80
2022-11-10T04:42:51.229Z,21.80
2022-11-10T04:43:39.297Z,21.80
2022-11-10T04:44:26.410Z,21.82
2022-11-10T04:45:14.064Z,21.82
2022-11-10T04:46:01.251Z,21.83
2022-11-10T04:46:48.730Z,21.86
2022-11-10T04:47:39.274Z,21.83
2022-11-10T04:48:33.828Z,21.81
2022-11-10T04:49:24.853Z,21.80
2022-11-10T04:50:16.408Z,21.83
2022-11-10T04:51:44.435Z,21.83
2022-11-10T04:52:36.989Z,21.84
2022-11-10T04:53:26.553Z,21.86
2022-11-10T04:54:20.088Z,21.83
2022-11-10T04:55:10.909Z,21.82
2022-11-10T04:56:02.664Z,21.83
2022-11-10T04:56:51.932Z,21.81
2022-11-10T04:57:39.734Z,21.80
2022-11-10T04:58:29.919Z,21.81
2022-11-10T04:59:19.383Z,21.82
2022-11-10T05:00:16.122Z,21.79
2022-11-10T05:01:06.917Z,21.76
2022-11-10T05:01:56.337Z,21.73
2022-11-10T05:02:46.785Z,21.76
2022-11-10T05:03:37.878Z,21.79
2022-11-10T05:04:32.839Z,21.80
2022-11-10T05:05:24.015Z,21.82
2022-11-10T05:06:12.355Z,21.78
2022-11-10T05:07:01.485Z,21.80
2022-11-10T05:07:52.555Z,21.80
2022-11-10T05:08:41.567Z,21.83
2022-11-10T05:09:31.973Z,21.83
2022-11-10T05:10:20.236Z,21.82
2022-11-10T05:11:13.117Z,21.83
2022-11-10T05:12:03.985Z,21.83
2022-11-10T05:12:53.469Z,21.82
2022-11-10T05:13:42.948Z,21.83
2022-11-10T05:14:33.093Z,21.83
2022-11-10T05:15:20.086Z,21.82
2022-11-10T05:16:08.165Z,21.82
2022-11-10T05:17:00.054Z,21.81
2022-11-10T05:17:48.193Z,21.78
2022-11-10T05:18:41.233Z,21.79
2022-11-10T05:19:28.968Z,21.80
2022-11-10T05:20:18.137Z,21.83
2022-11-10T05:21:09.145Z,21.82
2022-11-10T05:21:59.276Z,21.84
2022-11-10T05:22:49.354Z,21.85
2022-11-10T05:23:40.324Z,21.84
2022-11-10T05:24:35.165Z,21.83
2022-11-10T05:25:23.211Z,21.83
2022-11-10T05:26:09.869Z,21.82
2022-11-10T05:26:57.022Z,21.80
2022-11-10T05:27:48.100Z,21.75
2022-11-10T05:28:38.313Z,21.81
2022-11-10T05:29:32.514Z,21.81
2022-11-10T05:30:21.271Z,21.82
2022-11-10T05:31:11.404Z,21.80
2022-11-10T05:32:02.154Z,21.81
2022-11-10T05:32:52.429Z,21.81
2022-11-10T05:33:46.496Z,21.82
2022-11-10T05:34:35.965Z,21.81
2022-11-10T05:35:25.143Z,21.80
2022-11-10T05:36:14.070Z,21.79
2022-11-10T05:37:03.304Z,21.81
2022-11-10T05:37:53.100Z,21.81
2022-11-10T05:38:48.013Z,21.83
2022-11-10T05:39:36.603Z,21.81
2022-11-10T05:40:26.418Z,21.81
2022-11-10T05:41:16.856Z,21.80
2022-11-10T05:42:08.016Z,21.83
2022-11-10T05:42:59.541Z,21.84
2022-11-10T05:43:57.188Z,21.82
2022-11-10T05:44:49.846Z,21.82
2022-11-10T05:45:42.737Z,21.82
2022-11-10T05:46:36.209Z,21.83
2022-11-10T05:47:29.391Z,21.84
2022-11-10T05:48:20.921Z,21.85
2022-11-10T05:50:15.495Z,21.80
2022-11-10T05:51:05.921Z,21.82
2022-11-10T05:51:54.667Z,21.79
2022-11-10T05:52:47.643Z,21.81
2022-11-10T05:53:42.733Z,21.82
2022-11-10T05:54:37.187Z,21.86
2022-11-10T05:55:27.208Z,21.82
2022-11-10T05:56:16.848Z,21.78
2022-11-10T05:57:07.738Z,21.80
2022-11-10T05:57:56.286Z,21.82
2022-11-10T05:58:45.621Z,21.84
2022-11-10T05:59:33.973Z,21.84
2022-11-10T06:00:26.414Z,21.83
2022-11-10T06:01:16.410Z,21.82
2022-11-10T06:02:05.534Z,21.82
2022-11-10T06:02:53.514Z,21.85
2022-11-10T06:03:47.729Z,21.86
2022-11-10T06:04:36.455Z,21.81
2022-11-10T06:05:30.662Z,21.81
2022-11-10T06:06:17.843Z,21.82
2022-11-10T06:07:08.308Z,21.82
2022-11-10T06:07:57.527Z,21.83
2022-11-10T06:08:56.500Z,21.83
2022-11-10T06:09:48.021Z,21.85
2022-11-10T06:10:40.166Z,21.85
2022-11-10T06:11:31.685Z,21.83
2022-11-10T06:12:24.013Z,21.82
2022-11-10T06:13:22.595Z,21.81
2022-11-10T06:14:14.498Z,21.81
2022-11-10T06:15:04.162Z,21.80
2022-11-10T06:15:53.326Z,21.81
2022-11-10T06:16:41.792Z,21.84
2022-11-10T06:17:33.804Z,21.85
2022-11-10T06:18:31.945Z,21.83
2022-11-10T06:19:21.406Z,21.82
2022-11-10T06:20:09.456Z,21.82
2022-11-10T06:20:59.532Z,21.80
2022-11-10T06:21:55.417Z,21.81
2022-11-10T06:22:48.051Z,21.81
2022-11-10T06:23:44.001Z,21.80
2022-11-10T06:24:34.139Z,21.82
2022-11-10T06:25:23.564Z,21.81
2022-11-10T06:26:14.930Z,21.83
2022-11-10T06:27:05.674Z,21.82
2022-11-10T06:27:55.767Z,21.83
2022-11-10T06:28:51.880Z,21.82
2022-11-10T06:29:43.195Z,21.84
2022-11-10T06:30:33.439Z,21.85
2022-11-10T06:31:24.614Z,21.83
2022-11-10T06:32:15.398Z,21.79
2022-11-10T06:33:06.059Z,21.80
2022-11-10T06:34:05.766Z,21.83
2022-11-10T06:34:57.848Z,21.81
2022-11-10T06:35:48.657Z,21.85
2022-11-10T06:36:41.423Z,21.84
2022-11-10T06:37:30.542Z,21.84
2022-11-10T06:38:17.336Z,21.82
2022-11-10T06:39:12.759Z,21.81
2022-11-10T06:40:01.350Z,21.79
2022-11-10T06:40:52.846Z,21.82
2022-11-10T06:41:45.563Z,21.80
2022-11-10T06:42:36.983Z,21.81
2022-11-10T06:43:29.770Z,21.81
2022-11-10T06:44:26.526Z,21.83
2022-11-10T06:45:16.516Z,21.83
2022-11-10T06:46:07.231Z,21.80
2022-11-10T06:46:57.692Z,21.82
2022-11-10T06:47:47.940Z,21.83
2022-11-10T06:48:42.011Z,21.84
2022-11-10T06:49:35.977Z,21.81
2022-11-10T06:50:26.893Z,21.83
2022-11-10T06:51:16.928Z,21.84
2022-11-10T06:52:07.231Z,21.82
2022-11-10T06:52:55.433Z,21.81
2022-11-10T06:53:45.286Z,21.82
2022-11-10T06:54:34.913Z,21.84
2022-11-10T06:55:28.437Z,21.84
2022-11-10T06:56:14.922Z,21.82
2022-11-10T06:57:03.105Z,21.82
2022-11-10T06:57:53.855Z,21.83
2022-11-10T06:58:41.875Z,21.83
2022-11-10T06:59:28.649Z,21.85
2022-11-10T07:00:15.922Z,21.84
2022-11-10T07:02:07.270Z,21.85
2022-11-10T07:02:56.625Z,21.85
2022-11-10T07:04:17.541Z,21.84
2022-11-10T07:04:59.676Z,21.88
2022-11-10T07:05:51.505Z,21.86
2022-11-10T07:06:44.238Z,21.85
2022-11-10T07:07:35.302Z,21.83
2022-11-10T07:08:31.533Z,21.84
2022-11-10T07:09:21.439Z,21.83
2022-11-10T07:10:14.718Z,21.84
2022-11-10T07:11:07.349Z,21.80
2022-11-10T07:12:00.357Z,21.79
2022-11-10T07:12:50.261Z,21.81
2022-11-10T07:13:44.557Z,21.79
2022-11-10T07:14:35.646Z,21.78
2022-11-10T07:15:27.275Z,21.78
2022-11-10T07:16:14.044Z,21.81
2022-11-10T07:17:00.051Z,21.79
2022-11-10T07:17:49.617Z,21.80
2022-11-10T07:18:37.283Z,21.80
2022-11-10T07:19:25.769Z,21.80
2022-11-10T07:20:10.966Z,21.82
2022-11-10T07:20:58.694Z,21.79
2022-11-10T07:21:46.851Z,21.79
2022-11-10T07:22:34.076Z,21.80
2022-11-10T07:23:26.324Z,21.81
2022-11-10T07:24:14.420Z,21.83
2022-11-10T07:25:02.100Z,21.79
2022-11-10T07:25:48.606Z,21.79
2022-11-10T07:26:35.920Z,21.80
2022-11-10T07:27:22.814Z,21.78
2022-11-10T07:28:21.464Z,21.78
2022-11-10T07:29:11.813Z,21.78
2022-11-10T07:29:58.998Z,21.78
2022-11-10T07:30:45.283Z,21.75
2022-11-10T07:31:34.976Z,21.79
2022-11-10T07:32:23.802Z,21.76
2022-11-10T07:33:12.686Z,21.76
2022-11-10T07:34:07.568Z,21.76
2022-11-10T07:34:55.988Z,21.78
2022-11-10T07:35:45.047Z,21.79
2022-11-10T07:36:34.269Z,21.77
2022-11-10T07:37:23.259Z,21.80
2022-11-10T07:38:20.973Z,21.75
2022-11-10T07:39:11.842Z,21.78
2022-11-10T07:40:00.801Z,21.79
2022-11-10T07:40:49.210Z,21.79
2022-11-10T07:41:36.815Z,21.78
2022-11-10T07:42:25.356Z,21.77
2022-11-10T07:43:13.937Z,21.77
2022-11-10T07:44:03.328Z,21.73
2022-11-10T07:44:56.088Z,21.76
2022-11-10T07:45:45.116Z,21.76
2022-11-10T07:46:34.618Z,21.76
2022-11-10T07:47:23.682Z,21.75
2022-11-10T07:48:13.234Z,21.78
2022-11-10T07:49:05.971Z,21.78
2022-11-10T07:49:54.929Z,21.76
2022-11-10T07:50:44.393Z,21.76
2022-11-10T07:51:33.528Z,21.79
2022-11-10T07:52:22.767Z,21.78
2022-11-10T07:53:15.031Z,21.75
2022-11-10T07:54:11.740Z,21.78
2022-11-10T07:54:58.499Z,21.79
2022-11-10T07:55:45.257Z,21.79
2022-11-10T07:56:34.710Z,21.76
2022-11-10T07:57:25.061Z,21.76
2022-11-10T07:58:14.205Z,21.79
2022-11-10T07:59:08.256Z,21.77
2022-11-10T07:59:58.194Z,21.76
2022-11-10T08:00:45.626Z,21.79
2022-11-10T08:01:34.208Z,21.76
2022-11-10T08:02:23.658Z,21.80
2022-11-10T08:03:12.760Z,21.78
2022-11-10T08:04:00.699Z,21.80
2022-11-10T08:04:53.468Z,21.78
2022-11-10T08:05:42.364Z,21.76
2022-11-10T08:06:35.794Z,21.76
2022-11-10T08:07:24.123Z,21.76
2022-11-10T08:08:12.684Z,21.79
2022-11-10T08:09:01.558Z,21.79
2022-11-10T08:09:49.940Z,21.76
2022-11-10T08:10:42.623Z,21.75
2022-11-10T08:11:35.313Z,21.79
2022-11-10T08:12:24.394Z,21.75
2022-11-10T08:13:13.638Z,21.73
2022-11-10T08:14:05.998Z,21.75
2022-11-10T08:14:54.084Z,21.69
2022-11-10T08:15:43.519Z,21.72
2022-11-10T08:16:32.499Z,21.72
2022-11-10T08:17:20.474Z,21.72
2022-11-10T08:18:11.174Z,21.75
2022-11-10T08:19:05.387Z,21.76
2022-11-10T08:19:54.542Z,21.75
2022-11-10T08:20:43.895Z,21.75
2022-11-10T08:21:32.561Z,21.75
2022-11-10T08:22:20.332Z,21.74
2022-11-10T08:23:07.675Z,21.75
2022-11-10T08:23:55.576Z,21.74
2022-11-10T08:24:46.603Z,21.75
2022-11-10T08:25:35.491Z,21.76
2022-11-10T08:26:23.958Z,21.74
2022-11-10T08:27:14.298Z,21.74
2022-11-10T08:28:07.869Z,21.74
2022-11-10T08:28:58.885Z,21.74
2022-11-10T08:29:47.026Z,21.75
2022-11-10T08:30:35.221Z,21.74
2022-11-10T08:31:23.237Z,21.76
2022-11-10T08:32:10.714Z,21.74
2022-11-10T08:32:58.956Z,21.73
2022-11-10T08:33:46.008Z,21.72
2022-11-10T08:34:34.155Z,21.74
2022-11-10T08:35:21.122Z,21.74
2022-11-10T08:36:08.788Z,21.70
2022-11-10T08:36:57.644Z,21.75
2022-11-10T08:37:46.741Z,21.75
2022-11-10T08:38:43.546Z,21.75
2022-11-10T08:39:39.315Z,21.78
2022-11-10T08:40:28.715Z,21.79
2022-11-10T08:41:16.658Z,21.78
2022-11-10T08:42:05.654Z,21.74
2022-11-10T08:42:54.436Z,21.72
2022-11-10T08:43:50.690Z,21.75
2022-11-10T08:44:39.830Z,21.76
2022-11-10T08:45:26.358Z,21.74
2022-11-10T08:46:14.196Z,21.77
2022-11-10T08:47:05.003Z,21.76
2022-11-10T08:47:55.923Z,21.76
2022-11-10T08:48:46.825Z,21.75
2022-11-10T08:49:42.463Z,21.72
2022-11-10T08:50:31.919Z,21.75
2022-11-10T08:51:20.698Z,21.77
2022-11-10T08:52:08.031Z,21.74
2022-11-10T08:52:58.441Z,21.75
2022-11-10T08:53:51.878Z,21.74
2022-11-10T08:54:40.127Z,21.71
2022-11-10T08:55:27.810Z,21.70
2022-11-10T08:56:18.640Z,21.73
2022-11-10T08:57:08.200Z,21.70
2022-11-10T08:57:57.932Z,21.72
2022-11-10T08:58:53.588Z,21.72
2022-11-10T08:59:42.169Z,21.76
2022-11-10T09:00:32.733Z,21.73
2022-11-10T09:01:25.256Z,21.75
2022-11-10T09:02:16.011Z,21.74
2022-11-10T09:03:11.541Z,21.73
2022-11-10T09:04:05.425Z,21.75
2022-11-10T09:04:57.795Z,21.73
2022-11-10T09:05:57.669Z,21.72
2022-11-10T09:06:48.382Z,21.72
2022-11-10T09:07:39.407Z,21.70
2022-11-10T09:08:37.769Z,21.73
2022-11-10T09:09:27.991Z,21.76
2022-11-10T09:10:22.289Z,21.76
2022-11-10T09:12:04.471Z,21.78
2022-11-10T09:12:52.913Z,21.77
2022-11-10T09:13:45.124Z,21.78
2022-11-10T09:14:35.746Z,21.76
2022-11-10T09:15:26.079Z,21.76
2022-11-10T09:16:15.675Z,21.78
2022-11-10T09:17:05.490Z,21.81
2022-11-10T09:17:56.066Z,21.80
2022-11-10T09:18:51.189Z,21.78
2022-11-10T09:19:40.611Z,21.79
2022-11-10T09:20:31.768Z,21.79
2022-11-10T09:21:19.972Z,21.80
2022-11-10T09:22:11.053Z,21.80
2022-11-10T09:23:04.074Z,21.79
2022-11-10T09:23:54.181Z,21.76
2022-11-10T09:24:43.216Z,21.74
2022-11-10T09:25:33.123Z,21.74
2022-11-10T09:26:21.847Z,21.73
2022-11-10T09:27:10.025Z,21.70
2022-11-10T09:28:04.621Z,21.72
2022-11-10T09:28:52.362Z,21.75
2022-11-10T09:29:39.750Z,21.75
2022-11-10T09:30:28.457Z,21.77
2022-11-10T09:31:18.076Z,21.73
2022-11-10T09:32:08.149Z,21.69
2022-11-10T09:32:59.501Z,21.73
2022-11-10T09:33:54.828Z,21.76
2022-11-10T09:34:46.611Z,21.76
2022-11-10T09:35:35.619Z,21.77
2022-11-10T09:36:25.947Z,21.75
2022-11-10T09:37:16.002Z,21.79
2022-11-10T09:38:12.101Z,21.80
2022-11-10T09:39:06.243Z,21.83
2022-11-10T09:40:01.435Z,21.82
2022-11-10T09:41:06.100Z,21.79
2022-11-10T09:41:53.147Z,21.76
2022-11-10T09:42:47.260Z,21.79
2022-11-10T09:43:49.728Z,21.80
2022-11-10T09:44:35.158Z,21.82
2022-11-10T09:45:24.595Z,21.80
2022-11-10T09:46:10.076Z,21.79
2022-11-10T09:47:19.049Z,21.74
2022-11-10T09:48:36.098Z,21.75
2022-11-10T09:49:38.939Z,21.74
2022-11-10T09:50:37.893Z,21.75
2022-11-10T09:51:26.286Z,21.76
2022-11-10T09:52:14.558Z,21.76
2022-11-10T09:53:01.850Z,21.80
2022-11-10T09:53:55.380Z,21.79
2022-11-10T09:54:55.666Z,21.77
2022-11-10T09:55:56.642Z,21.74
2022-11-10T09:56:44.454Z,21.75
2022-11-10T09:57:33.550Z,21.74
2022-11-10T09:58:24.739Z,21.75
2022-11-10T09:59:14.297Z,21.76
2022-11-10T10:00:07.376Z,21.76
2022-11-10T10:01:00.734Z,21.76
2022-11-10T10:02:05.214Z,21.75
2022-11-10T10:03:03.055Z,21.80
2022-11-10T10:03:47.621Z,21.79
2022-11-10T10:04:29.228Z,21.79
2022-11-10T10:05:31.132Z,21.79
2022-11-10T10:06:21.141Z,21.75
2022-11-10T10:07:11.796Z,21.75
2022-11-10T10:08:02.828Z,21.76
2022-11-10T10:09:08.318Z,21.77
2022-11-10T10:10:19.780Z,21.79
2022-11-10T10:11:16.391Z,21.79
2022-11-10T10:12:07.420Z,21.74
2022-11-10T10:12:56.939Z,21.74
2022-11-10T10:13:57.925Z,21.73
2022-11-10T10:14:40.486Z,21.78
2022-11-10T10:15:35.121Z,21.76
2022-11-10T10:16:25.430Z,21.78
2022-11-10T10:17:17.571Z,21.76
2022-11-10T10:18:09.769Z,21.76
2022-11-10T10:19:09.309Z,21.77
2022-11-10T10:19:51.322Z,21.79
2022-11-10T10:20:33.382Z,21.77
2022-11-10T10:21:29.991Z,21.75
2022-11-10T10:22:30.758Z,21.79
2022-11-10T10:23:40.741Z,21.76
2022-11-10T10:24:37.519Z,21.79
2022-11-10T10:25:30.138Z,21.79
2022-11-10T10:26:18.747Z,21.75
2022-11-10T10:27:08.659Z,21.79
2022-11-10T10:28:02.778Z,21.77
2022-11-10T10:28:54.815Z,21.81
2022-11-10T10:29:43.339Z,21.79
2022-11-10T10:30:31.873Z,21.76
2022-11-10T10:31:24.700Z,21.78
2022-11-10T10:32:13.877Z,21.75
2022-11-10T10:33:06.649Z,21.76
2022-11-10T10:33:55.038Z,21.76
2022-11-10T10:34:46.333Z,21.76
2022-11-10T10:35:41.651Z,21.76
2022-11-10T10:36:28.490Z,21.79
2022-11-10T10:37:27.583Z,21.79
2022-11-10T10:38:21.318Z,21.78
2022-11-10T10:39:13.159Z,21.79
2022-11-10T10:39:59.769Z,21.79
2022-11-10T10:40:48.872Z,21.80
2022-11-10T10:41:36.253Z,21.74
2022-11-10T10:42:47.291Z,21.76
2022-11-10T10:43:38.205Z,21.78
2022-11-10T10:44:23.976Z,21.79
2022-11-10T10:45:39.025Z,21.83
2022-11-10T10:46:31.472Z,21.82
2022-11-10T10:47:20.797Z,21.84
2022-11-10T10:48:14.148Z,21.83
2022-11-10T10:49:28.467Z,21.82
2022-11-10T10:50:33.134Z,21.78
2022-11-10T10:51:18.660Z,21.80
2022-11-10T10:52:25.731Z,21.79
2022-11-10T10:53:10.588Z,21.79
2022-11-10T10:53:57.781Z,21.82
2022-11-10T10:54:48.024Z,21.82
2022-11-10T10:55:36.091Z,21.80
2022-11-10T10:56:23.653Z,21.80
2022-11-10T10:57:22.506Z,21.81
2022-11-10T10:58:12.078Z,21.80
2022-11-10T10:58:54.151Z,21.81
2022-11-10T10:59:41.513Z,21.81
2022-11-10T11:00:28.808Z,21.80
2022-11-10T11:01:16.661Z,21.81
2022-11-10T11:02:08.015Z,21.80
2022-11-10T11:03:04.609Z,21.79
2022-11-10T11:03:48.816Z,21.81
2022-11-10T11:04:43.862Z,21.82
2022-11-10T11:05:30.882Z,21.76
2022-11-10T11:06:20.673Z,21.80
2022-11-10T11:07:09.208Z,21.80
2022-11-10T11:08:13.417Z,21.79
2022-11-10T11:08:59.900Z,21.81
2022-11-10T11:09:52.357Z,21.78
2022-11-10T11:10:43.909Z,21.79
2022-11-10T11:11:36.815Z,21.80
2022-11-10T11:12:36.958Z,21.82